sensor_id;sensor_type;location;lat;lon;timestamp;pressure;altitude;pressure_sealevel;temperature;humidity
7058;BME280;3570;43.080;25.628;2022-08-05T00:02:07;-20116.81;;;22.86;76.10
7058;BME280;3570;43.080;25.628;2022-08-05T00:04:51;-20106.56;;;22.51;78.78
7058;BME280;3570;43.080;25.628;2022-08-05T00:07:35;-20096.59;;;22.16;80.37
7058;BME280;3570;43.080;25.628;2022-08-05T00:10:19;-20087.91;;;21.86;83.21
7058;BME280;3570;43.080;25.628;2022-08-05T00:13:05;-20082.81;;;21.68;84.18
7058;BME280;3570;43.080;25.628;2022-08-05T00:15:49;-20079.78;;;21.58;85.49
7058;BME280;3570;43.080;25.628;2022-08-05T00:18:34;-20078.63;;;21.53;86.65
7058;BME280;3570;43.080;25.628;2022-08-05T00:21:18;-20078.63;;;21.53;86.43
7058;BME280;3570;43.080;25.628;2022-08-05T00:24:03;-20081.94;;;21.65;85.57
7058;BME280;3570;43.080;25.628;2022-08-05T00:26:47;-20084.69;;;21.75;86.13
7058;BME280;3570;43.080;25.628;2022-08-05T00:29:31;-20085.16;;;21.76;85.40
7058;BME280;3570;43.080;25.628;2022-08-05T00:32:15;-20075.72;;;21.43;87.08
7058;BME280;3570;43.080;25.628;2022-08-05T00:34:59;-20077.19;;;21.48;88.61
7058;BME280;3570;43.080;25.628;2022-08-05T00:37:43;-20073.72;;;21.36;87.74
7058;BME280;3570;43.080;25.628;2022-08-05T00:40:27;-20065.88;;;21.09;89.89
7058;BME280;3570;43.080;25.628;2022-08-05T00:43:12;-20057.91;;;20.82;90.53
7058;BME280;3570;43.080;25.628;2022-08-05T00:45:56;-20061.81;;;20.95;92.21
7058;BME280;3570;43.080;25.628;2022-08-05T00:48:40;-20060.53;;;20.91;91.41
7058;BME280;3570;43.080;25.628;2022-08-05T00:51:24;-20055.88;;;20.75;89.67
7058;BME280;3570;43.080;25.628;2022-08-05T00:54:08;-20066.91;;;21.13;90.71
7058;BME280;3570;43.080;25.628;2022-08-05T00:56:52;-20070.97;;;21.27;89.89
7058;BME280;3570;43.080;25.628;2022-08-05T00:59:36;-20067.47;;;21.15;90.33
7058;BME280;3570;43.080;25.628;2022-08-05T01:02:20;-20076.88;;;21.47;87.46
7058;BME280;3570;43.080;25.628;2022-08-05T01:05:04;-20098.16;;;22.21;83.72
7058;BME280;3570;43.080;25.628;2022-08-05T01:07:48;-20099.31;;;22.25;82.15
7058;BME280;3570;43.080;25.628;2022-08-05T01:10:54;-20093.38;;;22.05;83.70
7058;BME280;3570;43.080;25.628;2022-08-05T01:14:01;-20089.06;;;21.90;83.75
7058;BME280;3570;43.080;25.628;2022-08-05T01:22:29;-20129.25;;;23.29;79.13
7058;BME280;3570;43.080;25.628;2022-08-05T01:28:23;-20138.81;;;23.63;77.06
7058;BME280;3570;43.080;25.628;2022-08-05T01:31:15;-20134.19;;;23.47;77.78
7058;BME280;3570;43.080;25.628;2022-08-05T01:34:34;-20133.88;;;23.46;77.64
7058;BME280;3570;43.080;25.628;2022-08-05T01:37:33;-20133.31;;;23.44;77.19
7058;BME280;3570;43.080;25.628;2022-08-05T01:40:20;-20136.22;;;23.54;77.55
7058;BME280;3570;43.080;25.628;2022-08-05T01:43:06;-20135.03;;;23.50;76.85
7058;BME280;3570;43.080;25.628;2022-08-05T01:45:54;-20134.31;;;23.47;77.38
7058;BME280;3570;43.080;25.628;2022-08-05T01:48:39;-20132.44;;;23.41;77.01
7058;BME280;3570;43.080;25.628;2022-08-05T01:51:24;-20122.91;;;23.07;78.40
7058;BME280;3570;43.080;25.628;2022-08-05T01:54:11;-20130.28;;;23.33;78.19
7058;BME280;3570;43.080;25.628;2022-08-05T01:56:57;-20124.34;;;23.12;78.52
7058;BME280;3570;43.080;25.628;2022-08-05T01:59:45;-20120.59;;;22.99;79.56
7058;BME280;3570;43.080;25.628;2022-08-05T02:02:32;-20112.78;;;22.72;80.30
7058;BME280;3570;43.080;25.628;2022-08-05T02:05:21;-20102.66;;;22.37;81.57
7058;BME280;3570;43.080;25.628;2022-08-05T02:08:08;-20097.31;;;22.18;83.72
7058;BME280;3570;43.080;25.628;2022-08-05T02:10:55;-20101.94;;;22.34;83.29
7058;BME280;3570;43.080;25.628;2022-08-05T02:13:58;-20104.09;;;22.42;81.44
7058;BME280;3570;43.080;25.628;2022-08-05T02:16:47;-20109.75;;;22.62;81.24
7058;BME280;3570;43.080;25.628;2022-08-05T02:19:35;-20104.38;;;22.43;81.24
7058;BME280;3570;43.080;25.628;2022-08-05T02:22:32;-20089.91;;;21.93;85.69
7058;BME280;3570;43.080;25.628;2022-08-05T02:25:21;-20085.88;;;21.79;85.43
7058;BME280;3570;43.080;25.628;2022-08-05T02:28:06;-20096.00;;;22.14;84.56
7058;BME280;3570;43.080;25.628;2022-08-05T02:30:56;-20116.25;;;22.84;81.75
7058;BME280;3570;43.080;25.628;2022-08-05T02:33:53;-20121.75;;;23.03;79.18
7058;BME280;3570;43.080;25.628;2022-08-05T02:36:42;-20116.09;;;22.84;79.82
7058;BME280;3570;43.080;25.628;2022-08-05T02:39:30;-20119.28;;;22.95;80.94
7058;BME280;3570;43.080;25.628;2022-08-05T02:42:18;-20113.94;;;22.76;81.27
7058;BME280;3570;43.080;25.628;2022-08-05T02:45:05;-20112.50;;;22.71;82.14
7058;BME280;3570;43.080;25.628;2022-08-05T02:47:52;-20102.06;;;22.35;82.83
7058;BME280;3570;43.080;25.628;2022-08-05T02:50:38;-20100.91;;;22.31;83.31
7058;BME280;3570;43.080;25.628;2022-08-05T02:53:26;-20102.22;;;22.35;84.22
7058;BME280;3570;43.080;25.628;2022-08-05T02:56:11;-20103.81;;;22.41;84.05
7058;BME280;3570;43.080;25.628;2022-08-05T02:58:56;-20102.06;;;22.35;84.99
7058;BME280;3570;43.080;25.628;2022-08-05T03:01:43;-20106.13;;;22.49;84.39
7058;BME280;3570;43.080;25.628;2022-08-05T03:04:29;-20114.09;;;22.77;83.44
7058;BME280;3570;43.080;25.628;2022-08-05T03:07:14;-20115.09;;;22.80;82.55
7058;BME280;3570;43.080;25.628;2022-08-05T03:09:59;-20118.56;;;22.92;82.26
7058;BME280;3570;43.080;25.628;2022-08-05T03:12:43;-20126.81;;;23.21;81.13
7058;BME280;3570;43.080;25.628;2022-08-05T03:15:27;-20123.47;;;23.09;80.42
7058;BME280;3570;43.080;25.628;2022-08-05T03:18:11;-20120.88;;;23.00;81.58
7058;BME280;3570;43.080;25.628;2022-08-05T03:20:55;-20109.31;;;22.60;82.89
7058;BME280;3570;43.080;25.628;2022-08-05T03:23:41;-20097.88;;;22.20;83.45
7058;BME280;3570;43.080;25.628;2022-08-05T03:26:26;-20112.78;;;22.72;82.72
7058;BME280;3570;43.080;25.628;2022-08-05T03:29:10;-20099.31;;;22.25;84.04
7058;BME280;3570;43.080;25.628;2022-08-05T03:31:54;-20088.19;;;21.87;86.25
7058;BME280;3570;43.080;25.628;2022-08-05T03:34:38;-20069.06;;;21.20;90.45
7058;BME280;3570;43.080;25.628;2022-08-05T03:37:23;-20066.03;;;21.10;92.87
7058;BME280;3570;43.080;25.628;2022-08-05T03:40:08;-20073.28;;;21.35;92.83
7058;BME280;3570;43.080;25.628;2022-08-05T03:42:52;-20060.97;;;20.92;94.45
7058;BME280;3570;43.080;25.628;2022-08-05T03:45:36;-20057.47;;;20.80;96.34
7058;BME280;3570;43.080;25.628;2022-08-05T03:48:20;-20067.34;;;21.14;95.47
7058;BME280;3570;43.080;25.628;2022-08-05T03:51:28;-20082.41;;;21.67;91.13
7058;BME280;3570;43.080;25.628;2022-08-05T03:54:17;-20091.09;;;21.97;89.09
7058;BME280;3570;43.080;25.628;2022-08-05T03:57:03;-20097.16;;;22.18;87.81
7058;BME280;3570;43.080;25.628;2022-08-05T03:59:50;-20100.06;;;22.28;87.19
7058;BME280;3570;43.080;25.628;2022-08-05T04:02:37;-20074.88;;;21.40;88.52
7058;BME280;3570;43.080;25.628;2022-08-05T04:05:23;-20095.28;;;22.11;87.67
7058;BME280;3570;43.080;25.628;2022-08-05T04:08:09;-20096.88;;;22.17;86.01
7058;BME280;3570;43.080;25.628;2022-08-05T04:10:55;-20098.31;;;22.22;86.35
7058;BME280;3570;43.080;25.628;2022-08-05T04:13:41;-20107.00;;;22.52;83.97
7058;BME280;3570;43.080;25.628;2022-08-05T04:16:25;-20112.50;;;22.71;83.64
7058;BME280;3570;43.080;25.628;2022-08-05T04:19:10;-20111.78;;;22.69;82.42
7058;BME280;3570;43.080;25.628;2022-08-05T04:21:55;-20120.31;;;22.98;82.16
7058;BME280;3570;43.080;25.628;2022-08-05T04:24:43;-20122.19;;;23.05;81.67
7058;BME280;3570;43.080;25.628;2022-08-05T04:27:28;-20135.34;;;23.51;79.90
7058;BME280;3570;43.080;25.628;2022-08-05T04:30:12;-20135.34;;;23.51;80.09
7058;BME280;3570;43.080;25.628;2022-08-05T04:32:57;-20134.47;;;23.48;79.68
7058;BME280;3570;43.080;25.628;2022-08-05T04:35:41;-20137.94;;;23.60;79.38
7058;BME280;3570;43.080;25.628;2022-08-05T04:38:26;-20135.47;;;23.51;79.78
7058;BME280;3570;43.080;25.628;2022-08-05T04:41:10;-20128.41;;;23.26;79.43
7058;BME280;3570;43.080;25.628;2022-08-05T04:43:54;-20138.53;;;23.62;79.24
7058;BME280;3570;43.080;25.628;2022-08-05T04:46:38;-20137.22;;;23.57;79.29
7058;BME280;3570;43.080;25.628;2022-08-05T04:49:22;-20123.78;;;23.10;79.26
7058;BME280;3570;43.080;25.628;2022-08-05T04:52:06;-20143.28;;;23.78;78.76
7058;BME280;3570;43.080;25.628;2022-08-05T04:54:50;-20150.38;;;24.03;77.28
7058;BME280;3570;43.080;25.628;2022-08-05T04:57:34;-20144.72;;;23.83;77.73
7058;BME280;3570;43.080;25.628;2022-08-05T05:00:19;-20146.59;;;23.90;78.26
7058;BME280;3570;43.080;25.628;2022-08-05T05:03:04;-20151.53;;;24.07;77.64
7058;BME280;3570;43.080;25.628;2022-08-05T05:05:48;-20158.31;;;24.31;76.00
7058;BME280;3570;43.080;25.628;2022-08-05T05:08:32;-20161.63;;;24.42;75.29
7058;BME280;3570;43.080;25.628;2022-08-05T05:11:19;-20159.59;;;24.35;75.56
7058;BME280;3570;43.080;25.628;2022-08-05T05:14:03;-20161.63;;;24.42;75.11
7058;BME280;3570;43.080;25.628;2022-08-05T05:16:47;-20164.38;;;24.52;76.31
7058;BME280;3570;43.080;25.628;2022-08-05T05:19:31;-20163.66;;;24.49;76.39
7058;BME280;3570;43.080;25.628;2022-08-05T05:22:15;-20160.31;;;24.38;75.20
7058;BME280;3570;43.080;25.628;2022-08-05T05:24:59;-20154.69;;;24.18;76.43
7058;BME280;3570;43.080;25.628;2022-08-05T05:27:43;-20147.75;;;23.94;77.27
7058;BME280;3570;43.080;25.628;2022-08-05T05:30:27;-20146.31;;;23.89;76.94
7058;BME280;3570;43.080;25.628;2022-08-05T05:33:11;-20161.19;;;24.41;75.57
7058;BME280;3570;43.080;25.628;2022-08-05T05:35:55;-20163.78;;;24.50;74.80
7058;BME280;3570;43.080;25.628;2022-08-05T05:38:39;-20167.13;;;24.61;73.82
7058;BME280;3570;43.080;25.628;2022-08-05T05:41:25;-20172.59;;;24.80;73.13
7058;BME280;3570;43.080;25.628;2022-08-05T05:44:10;-20157.28;;;24.27;74.06
7058;BME280;3570;43.080;25.628;2022-08-05T05:46:54;-20163.94;;;24.50;73.92
7058;BME280;3570;43.080;25.628;2022-08-05T05:49:38;-20170.00;;;24.71;72.56
7058;BME280;3570;43.080;25.628;2022-08-05T05:52:23;-20161.78;;;24.43;72.96
7058;BME280;3570;43.080;25.628;2022-08-05T05:55:09;-20160.47;;;24.38;73.65
7058;BME280;3570;43.080;25.628;2022-08-05T05:57:53;-20161.63;;;24.42;73.27
7058;BME280;3570;43.080;25.628;2022-08-05T06:00:37;-20162.50;;;24.45;74.73
7058;BME280;3570;43.080;25.628;2022-08-05T06:03:21;-20167.41;;;24.62;73.61
7058;BME280;3570;43.080;25.628;2022-08-05T06:06:06;-20166.81;;;24.60;73.61
7058;BME280;3570;43.080;25.628;2022-08-05T06:08:50;-20166.38;;;24.59;73.80
7058;BME280;3570;43.080;25.628;2022-08-05T06:11:34;-20173.47;;;24.83;73.83
7058;BME280;3570;43.080;25.628;2022-08-05T06:14:18;-20174.19;;;24.86;72.04
7058;BME280;3570;43.080;25.628;2022-08-05T06:17:02;-20174.34;;;24.86;71.88
7058;BME280;3570;43.080;25.628;2022-08-05T06:19:46;-20176.50;;;24.94;70.39
7058;BME280;3570;43.080;25.628;2022-08-05T06:22:32;-20182.56;;;25.15;70.99
7058;BME280;3570;43.080;25.628;2022-08-05T06:25:17;-20179.53;;;25.04;71.69
7058;BME280;3570;43.080;25.628;2022-08-05T06:28:00;-20192.66;;;25.50;71.02
7058;BME280;3570;43.080;25.628;2022-08-05T06:30:44;-20205.34;;;25.94;68.84
7058;BME280;3570;43.080;25.628;2022-08-05T06:33:28;-20208.38;;;26.05;67.65
7058;BME280;3570;43.080;25.628;2022-08-05T06:36:12;-20228.41;;;26.75;66.46
7058;BME280;3570;43.080;25.628;2022-08-05T06:38:56;-20236.78;;;27.04;64.64
7058;BME280;3570;43.080;25.628;2022-08-05T06:41:40;-20246.00;;;27.36;64.71
7058;BME280;3570;43.080;25.628;2022-08-05T06:44:25;-20251.75;;;27.56;62.85
7058;BME280;3570;43.080;25.628;2022-08-05T06:47:09;-20258.38;;;27.79;61.88
7058;BME280;3570;43.080;25.628;2022-08-05T06:49:53;-20262.09;;;27.92;61.25
7058;BME280;3570;43.080;25.628;2022-08-05T06:52:38;-20265.69;;;28.05;61.12
7058;BME280;3570;43.080;25.628;2022-08-05T06:55:22;-20276.34;;;28.42;59.84
7058;BME280;3570;43.080;25.628;2022-08-05T06:58:06;-20276.06;;;28.41;60.90
7058;BME280;3570;43.080;25.628;2022-08-05T07:00:50;-20263.97;;;27.99;61.71
7058;BME280;3570;43.080;25.628;2022-08-05T07:03:34;-20265.28;;;28.04;62.59
7058;BME280;3570;43.080;25.628;2022-08-05T07:06:18;-20269.72;;;28.19;61.69
7058;BME280;3570;43.080;25.628;2022-08-05T07:09:03;-20274.19;;;28.35;60.21
7058;BME280;3570;43.080;25.628;2022-08-05T07:11:47;-20288.88;;;28.86;58.51
7058;BME280;3570;43.080;25.628;2022-08-05T07:14:31;-20290.59;;;28.92;58.67
7058;BME280;3570;43.080;25.628;2022-08-05T07:17:34;-20291.88;;;28.97;58.33
7058;BME280;3570;43.080;25.628;2022-08-05T07:20:18;-20285.13;;;28.73;58.30
7058;BME280;3570;43.080;25.628;2022-08-05T07:23:02;-20296.19;;;29.12;57.85
7058;BME280;3570;43.080;25.628;2022-08-05T07:25:46;-20304.09;;;29.39;55.53
7058;BME280;3570;43.080;25.628;2022-08-05T07:28:31;-20314.59;;;29.76;54.41
7058;BME280;3570;43.080;25.628;2022-08-05T07:31:16;-20324.34;;;30.10;53.37
7058;BME280;3570;43.080;25.628;2022-08-05T07:34:00;-20331.66;;;30.36;51.19
7058;BME280;3570;43.080;25.628;2022-08-05T07:36:45;-20339.56;;;30.64;50.31
7058;BME280;3570;43.080;25.628;2022-08-05T07:39:29;-20342.56;;;30.74;49.38
7058;BME280;3570;43.080;25.628;2022-08-05T07:42:13;-20347.16;;;30.90;48.92
7058;BME280;3570;43.080;25.628;2022-08-05T07:44:57;-20344.00;;;30.79;48.17
7058;BME280;3570;43.080;25.628;2022-08-05T07:47:41;-20348.16;;;30.94;48.37
7058;BME280;3570;43.080;25.628;2022-08-05T07:50:25;-20357.06;;;31.25;47.01
7058;BME280;3570;43.080;25.628;2022-08-05T07:53:08;-20359.94;;;31.35;46.64
7058;BME280;3570;43.080;25.628;2022-08-05T07:55:53;-20365.38;;;31.54;46.69
7058;BME280;3570;43.080;25.628;2022-08-05T07:58:37;-20362.22;;;31.43;45.70
7058;BME280;3570;43.080;25.628;2022-08-05T08:01:21;-20365.94;;;31.56;45.83
7058;BME280;3570;43.080;25.628;2022-08-05T08:04:08;-20377.72;;;31.97;44.08
7058;BME280;3570;43.080;25.628;2022-08-05T08:06:52;-20380.72;;;32.08;43.67
7058;BME280;3570;43.080;25.628;2022-08-05T08:09:36;-20371.97;;;31.77;43.46
7058;BME280;3570;43.080;25.628;2022-08-05T08:12:20;-20374.84;;;31.87;43.76
7058;BME280;3570;43.080;25.628;2022-08-05T08:15:06;-20378.13;;;31.99;44.09
7058;BME280;3570;43.080;25.628;2022-08-05T08:17:50;-20389.03;;;32.37;42.70
7058;BME280;3570;43.080;25.628;2022-08-05T08:20:34;-20387.44;;;32.31;42.55
7058;BME280;3570;43.080;25.628;2022-08-05T08:23:18;-20397.47;;;32.67;42.29
7058;BME280;3570;43.080;25.628;2022-08-05T08:26:02;-20398.63;;;32.71;41.43
7058;BME280;3570;43.080;25.628;2022-08-05T08:28:46;-20394.03;;;32.55;41.95
7058;BME280;3570;43.080;25.628;2022-08-05T08:31:30;-20395.31;;;32.59;41.32
7058;BME280;3570;43.080;25.628;2022-08-05T08:34:16;-20396.19;;;32.62;41.79
7058;BME280;3570;43.080;25.628;2022-08-05T08:37:01;-20405.50;;;32.95;41.18
7058;BME280;3570;43.080;25.628;2022-08-05T08:39:45;-20405.19;;;32.94;40.28
7058;BME280;3570;43.080;25.628;2022-08-05T08:42:29;-20405.50;;;32.95;41.30
7058;BME280;3570;43.080;25.628;2022-08-05T08:45:14;-20401.19;;;32.80;40.34
7058;BME280;3570;43.080;25.628;2022-08-05T08:47:58;-20402.78;;;32.85;39.39
7058;BME280;3570;43.080;25.628;2022-08-05T08:50:49;-20405.63;;;32.95;39.86
7058;BME280;3570;43.080;25.628;2022-08-05T08:53:37;-20411.06;;;33.14;40.32
7058;BME280;3570;43.080;25.628;2022-08-05T08:56:22;-20424.22;;;33.61;38.86
7058;BME280;3570;43.080;25.628;2022-08-05T08:59:06;-20422.66;;;33.55;39.02
7058;BME280;3570;43.080;25.628;2022-08-05T09:01:51;-20427.53;;;33.72;38.66
7058;BME280;3570;43.080;25.628;2022-08-05T09:04:36;-20434.53;;;33.97;38.41
7058;BME280;3570;43.080;25.628;2022-08-05T09:07:23;-20437.25;;;34.06;37.97
7058;BME280;3570;43.080;25.628;2022-08-05T09:10:07;-20436.38;;;34.03;38.14
7058;BME280;3570;43.080;25.628;2022-08-05T09:12:51;-20435.97;;;34.02;37.80
7058;BME280;3570;43.080;25.628;2022-08-05T09:15:36;-20426.53;;;33.69;37.95
7058;BME280;3570;43.080;25.628;2022-08-05T09:18:21;-20445.81;;;34.37;38.19
7058;BME280;3570;43.080;25.628;2022-08-05T09:21:05;-20447.81;;;34.44;38.63
7058;BME280;3570;43.080;25.628;2022-08-05T09:24:02;-20463.53;;;34.99;37.11
7058;BME280;3570;43.080;25.628;2022-08-05T09:26:52;-20494.94;;;36.10;35.40
7058;BME280;3570;43.080;25.628;2022-08-05T09:29:45;-20528.00;;;37.26;33.38
7058;BME280;3570;43.080;25.628;2022-08-05T09:32:34;-20540.38;;;37.70;32.26
7058;BME280;3570;43.080;25.628;2022-08-05T09:35:19;-20542.38;;;37.77;32.50
7058;BME280;3570;43.080;25.628;2022-08-05T09:38:05;-20547.50;;;37.95;32.03
7058;BME280;3570;43.080;25.628;2022-08-05T09:40:49;-20561.59;;;38.45;31.30
7058;BME280;3570;43.080;25.628;2022-08-05T09:43:35;-20577.78;;;39.02;30.93
7058;BME280;3570;43.080;25.628;2022-08-05T09:46:27;-20576.94;;;38.99;30.47
7058;BME280;3570;43.080;25.628;2022-08-05T09:49:21;-20583.19;;;39.21;30.03
7058;BME280;3570;43.080;25.628;2022-08-05T09:52:27;-20601.94;;;39.88;29.25
7058;BME280;3570;43.080;25.628;2022-08-05T09:55:12;-20600.78;;;39.84;29.06
7058;BME280;3570;43.080;25.628;2022-08-05T09:57:56;-20588.03;;;39.38;29.71
7058;BME280;3570;43.080;25.628;2022-08-05T10:03:36;-20594.28;;;39.61;29.34
7058;BME280;3570;43.080;25.628;2022-08-05T10:06:20;-20572.66;;;38.84;31.16
7058;BME280;3570;43.080;25.628;2022-08-05T10:09:15;-20546.66;;;37.92;32.27
7058;BME280;3570;43.080;25.628;2022-08-05T10:12:09;-20588.03;;;39.38;30.06
7058;BME280;3570;43.080;25.628;2022-08-05T10:15:12;-20579.50;;;39.08;30.13
7058;BME280;3570;43.080;25.628;2022-08-05T10:18:14;-20557.03;;;38.29;31.19
7058;BME280;3570;43.080;25.628;2022-08-05T10:21:05;-20541.22;;;37.73;32.39
7058;BME280;3570;43.080;25.628;2022-08-05T10:23:50;-20540.94;;;37.72;32.33
7058;BME280;3570;43.080;25.628;2022-08-05T10:26:35;-20569.84;;;38.74;31.61
7058;BME280;3570;43.080;25.628;2022-08-05T10:29:20;-20582.19;;;39.18;29.93
7058;BME280;3570;43.080;25.628;2022-08-05T10:32:05;-20565.84;;;38.60;30.10
7058;BME280;3570;43.080;25.628;2022-08-05T10:34:50;-20570.13;;;38.75;29.75
7058;BME280;3570;43.080;25.628;2022-08-05T10:37:34;-20604.50;;;39.97;28.51
7058;BME280;3570;43.080;25.628;2022-08-05T10:43:50;-20541.09;;;37.72;31.58
7058;BME280;3570;43.080;25.628;2022-08-05T10:46:49;-20577.06;;;39.00;29.28
7058;BME280;3570;43.080;25.628;2022-08-05T10:49:34;-20604.34;;;39.96;27.63
7058;BME280;3570;43.080;25.628;2022-08-05T10:52:56;-20608.59;;;40.11;27.87
7058;BME280;3570;43.080;25.628;2022-08-05T10:56:00;-20584.88;;;39.27;28.78
7058;BME280;3570;43.080;25.628;2022-08-05T11:01:42;-20604.06;;;39.95;26.58
7058;BME280;3570;43.080;25.628;2022-08-05T11:04:29;-20634.28;;;41.02;26.15
7058;BME280;3570;43.080;25.628;2022-08-05T11:07:14;-20664.72;;;42.10;25.05
7058;BME280;3570;43.080;25.628;2022-08-05T11:10:00;-20684.81;;;42.82;24.40
7058;BME280;3570;43.080;25.628;2022-08-05T11:12:45;-20635.97;;;41.08;26.04
7058;BME280;3570;43.080;25.628;2022-08-05T11:21:31;-20531.13;;;37.37;29.93
7058;BME280;3570;43.080;25.628;2022-08-05T11:24:15;-20512.31;;;36.71;31.56
7058;BME280;3570;43.080;25.628;2022-08-05T11:27:28;-20495.06;;;36.10;32.04
7058;BME280;3570;43.080;25.628;2022-08-05T11:30:12;-20497.22;;;36.18;33.12
7058;BME280;3570;43.080;25.628;2022-08-05T11:36:42;-20623.66;;;40.65;26.18
7058;BME280;3570;43.080;25.628;2022-08-05T11:39:47;-20596.81;;;39.70;26.71
7058;BME280;3570;43.080;25.628;2022-08-05T11:42:33;-20639.94;;;41.22;25.14
7058;BME280;3570;43.080;25.628;2022-08-05T11:45:17;-20657.50;;;41.85;24.35
7058;BME280;3570;43.080;25.628;2022-08-05T11:48:07;-20686.66;;;42.88;23.85
7058;BME280;3570;43.080;25.628;2022-08-05T11:50:52;-20700.66;;;43.38;22.63
7058;BME280;3570;43.080;25.628;2022-08-05T11:53:36;-20682.69;;;42.74;23.78
7058;BME280;3570;43.080;25.628;2022-08-05T11:56:23;-20695.72;;;43.21;23.53
7058;BME280;3570;43.080;25.628;2022-08-05T11:59:11;-20694.00;;;43.15;23.67
7058;BME280;3570;43.080;25.628;2022-08-05T12:02:04;-20690.91;;;43.04;23.55
7058;BME280;3570;43.080;25.628;2022-08-05T12:04:49;-20682.56;;;42.74;24.10
7058;BME280;3570;43.080;25.628;2022-08-05T12:07:34;-20631.16;;;40.91;25.33
7058;BME280;3570;43.080;25.628;2022-08-05T12:10:21;-20585.88;;;39.31;27.42
7058;BME280;3570;43.080;25.628;2022-08-05T12:13:06;-20551.63;;;38.10;28.98
7058;BME280;3570;43.080;25.628;2022-08-05T12:15:50;-20523.16;;;37.09;30.21
7058;BME280;3570;43.080;25.628;2022-08-05T12:18:35;-20552.47;;;38.13;28.55
7058;BME280;3570;43.080;25.628;2022-08-05T12:21:23;-20636.13;;;41.09;25.24
7058;BME280;3570;43.080;25.628;2022-08-05T12:24:19;-20684.97;;;42.82;23.08
7058;BME280;3570;43.080;25.628;2022-08-05T12:27:03;-20700.09;;;43.36;22.69
7058;BME280;3570;43.080;25.628;2022-08-05T12:30:09;-20738.22;;;44.72;20.92
7058;BME280;3570;43.080;25.628;2022-08-05T12:32:54;-20748.66;;;45.09;21.22
7058;BME280;3570;43.080;25.628;2022-08-05T12:35:41;-20745.13;;;44.97;21.33
7058;BME280;3570;43.080;25.628;2022-08-05T12:38:26;-20742.88;;;44.89;21.39
7058;BME280;3570;43.080;25.628;2022-08-05T12:41:12;-20775.84;;;46.06;21.03
7058;BME280;3570;43.080;25.628;2022-08-05T12:44:02;-20737.94;;;44.71;21.37
7058;BME280;3570;43.080;25.628;2022-08-05T12:46:51;-20663.47;;;42.06;23.79
7058;BME280;3570;43.080;25.628;2022-08-05T12:49:46;-20619.53;;;40.50;25.25
7058;BME280;3570;43.080;25.628;2022-08-05T12:52:34;-20608.88;;;40.12;26.51
7058;BME280;3570;43.080;25.628;2022-08-05T12:55:23;-20662.91;;;42.04;25.06
7058;BME280;3570;43.080;25.628;2022-08-05T12:58:22;-20727.34;;;44.33;22.05
7058;BME280;3570;43.080;25.628;2022-08-05T13:01:07;-20758.66;;;45.45;20.38
7058;BME280;3570;43.080;25.628;2022-08-05T13:03:51;-20783.16;;;46.32;19.80
7058;BME280;3570;43.080;25.628;2022-08-05T13:06:41;-20792.47;;;46.66;19.73
7058;BME280;3570;43.080;25.628;2022-08-05T13:09:28;-20784.84;;;46.38;19.26
7058;BME280;3570;43.080;25.628;2022-08-05T13:12:14;-20744.00;;;44.93;20.68
7058;BME280;3570;43.080;25.628;2022-08-05T13:14:59;-20763.44;;;45.62;20.23
7058;BME280;3570;43.080;25.628;2022-08-05T13:17:52;-20758.38;;;45.44;20.50
7058;BME280;3570;43.080;25.628;2022-08-05T13:20:37;-20752.47;;;45.23;20.30
7058;BME280;3570;43.080;25.628;2022-08-05T13:23:22;-20778.38;;;46.15;19.63
7058;BME280;3570;43.080;25.628;2022-08-05T13:26:05;-20804.81;;;47.10;19.18
7058;BME280;3570;43.080;25.628;2022-08-05T13:28:49;-20775.00;;;46.03;20.24
7058;BME280;3570;43.080;25.628;2022-08-05T13:31:33;-20723.81;;;44.21;21.24
7058;BME280;3570;43.080;25.628;2022-08-05T13:34:17;-20687.09;;;42.90;22.55
7058;BME280;3570;43.080;25.628;2022-08-05T13:37:01;-20661.63;;;41.99;23.72
7058;BME280;3570;43.080;25.628;2022-08-05T13:39:46;-20709.69;;;43.70;21.92
7058;BME280;3570;43.080;25.628;2022-08-05T13:42:31;-20750.75;;;45.17;20.96
7058;BME280;3570;43.080;25.628;2022-08-05T13:45:15;-20799.19;;;46.90;19.29
7058;BME280;3570;43.080;25.628;2022-08-05T13:47:59;-20818.75;;;47.60;18.36
7058;BME280;3570;43.080;25.628;2022-08-05T13:50:43;-20844.28;;;48.51;17.80
7058;BME280;3570;43.080;25.628;2022-08-05T13:53:27;-20786.53;;;46.44;19.32
7058;BME280;3570;43.080;25.628;2022-08-05T13:56:11;-20684.25;;;42.80;22.30
7058;BME280;3570;43.080;25.628;2022-08-05T13:58:55;-20665.31;;;42.13;22.68
7058;BME280;3570;43.080;25.628;2022-08-05T14:01:39;-20646.19;;;41.45;23.58
7058;BME280;3570;43.080;25.628;2022-08-05T14:04:24;-20692.59;;;43.10;22.12
7058;BME280;3570;43.080;25.628;2022-08-05T14:07:29;-20742.88;;;44.89;19.87
7058;BME280;3570;43.080;25.628;2022-08-05T14:10:19;-20797.50;;;46.84;19.11
7058;BME280;3570;43.080;25.628;2022-08-05T14:13:07;-20811.84;;;47.35;18.40
7058;BME280;3570;43.080;25.628;2022-08-05T14:15:51;-20756.25;;;45.36;19.35
7058;BME280;3570;43.080;25.628;2022-08-05T14:18:35;-20735.81;;;44.63;20.44
7058;BME280;3570;43.080;25.628;2022-08-05T14:21:19;-20688.50;;;42.95;21.24
7058;BME280;3570;43.080;25.628;2022-08-05T14:24:03;-20634.41;;;41.03;23.06
7058;BME280;3570;43.080;25.628;2022-08-05T14:26:48;-20698.53;;;43.31;21.48
7058;BME280;3570;43.080;25.628;2022-08-05T14:29:32;-20725.66;;;44.27;20.41
7058;BME280;3570;43.080;25.628;2022-08-05T14:32:17;-20785.56;;;46.41;18.62
7058;BME280;3570;43.080;25.628;2022-08-05T14:35:02;-20839.66;;;48.35;16.93
7058;BME280;3570;43.080;25.628;2022-08-05T14:37:46;-20841.50;;;48.41;17.46
7058;BME280;3570;43.080;25.628;2022-08-05T14:40:30;-20836.84;;;48.25;17.41
7058;BME280;3570;43.080;25.628;2022-08-05T14:43:14;-20845.28;;;48.55;16.74
7058;BME280;3570;43.080;25.628;2022-08-05T14:45:59;-20846.97;;;48.61;17.14
7058;BME280;3570;43.080;25.628;2022-08-05T14:48:42;-20850.63;;;48.74;17.14
7058;BME280;3570;43.080;25.628;2022-08-05T14:51:27;-20856.50;;;48.95;16.98
7058;BME280;3570;43.080;25.628;2022-08-05T14:54:11;-20855.38;;;48.91;16.66
7058;BME280;3570;43.080;25.628;2022-08-05T14:56:56;-20790.34;;;46.58;17.99
7058;BME280;3570;43.080;25.628;2022-08-05T14:59:40;-20749.34;;;45.12;19.17
7058;BME280;3570;43.080;25.628;2022-08-05T15:02:24;-20700.81;;;43.39;20.47
7058;BME280;3570;43.080;25.628;2022-08-05T15:05:08;-20695.00;;;43.18;21.14
7058;BME280;3570;43.080;25.628;2022-08-05T15:07:52;-20748.94;;;45.10;19.22
7058;BME280;3570;43.080;25.628;2022-08-05T15:10:36;-20764.72;;;45.67;19.18